createdAt,value
2023-01-31T00:03:16.019Z,5.70
2023-01-31T00:13:21.318Z,6.30
2023-01-31T00:23:25.447Z,6.80
2023-01-31T00:33:30.771Z,6.70
2023-01-31T00:43:35.394Z,6.50
2023-01-31T00:53:41.050Z,6.90
2023-01-31T01:03:46.765Z,6.80
2023-01-31T01:13:52.825Z,7.20
2023-01-31T01:23:59.941Z,7.00
2023-01-31T01:34:07.323Z,6.80
2023-01-31T01:44:44.732Z,6.50
2023-01-31T01:54:55.257Z,6.30
2023-01-31T02:04:59.295Z,6.40
2023-01-31T02:15:05.193Z,6.40
2023-01-31T02:25:49.980Z,6.00
2023-01-31T02:36:05.822Z,6.00
2023-01-31T02:46:14.021Z,6.10
2023-01-31T02:56:23.886Z,6.00
2023-01-31T03:06:55.080Z,6.10
2023-01-31T03:17:23.346Z,6.30
2023-01-31T03:27:27.801Z,6.60
2023-01-31T03:37:39.121Z,6.60
2023-01-31T03:47:46.178Z,6.40
2023-01-31T03:57:54.315Z,6.00
2023-01-31T04:07:58.168Z,5.90
2023-01-31T04:18:03.687Z,6.30
2023-01-31T04:28:07.342Z,6.30
2023-01-31T04:38:12.440Z,5.80
2023-01-31T04:48:16.543Z,5.80
2023-01-31T04:58:21.646Z,5.70
2023-01-31T05:08:25.377Z,5.80
2023-01-31T05:18:30.489Z,6.10
2023-01-31T05:28:34.216Z,6.20
2023-01-31T05:38:39.476Z,6.30
2023-01-31T05:48:43.528Z,5.90
2023-01-31T05:58:50.778Z,5.90
2023-01-31T06:08:54.617Z,5.80
2023-01-31T06:19:00.144Z,5.60
2023-01-31T06:29:04.017Z,5.50
2023-01-31T06:39:09.259Z,5.70
2023-01-31T06:49:14.409Z,5.70
2023-01-31T06:59:19.545Z,5.60
2023-01-31T07:09:23.943Z,5.50
2023-01-31T07:19:31.238Z,5.30
2023-01-31T07:29:37.426Z,5.40
2023-01-31T07:39:43.524Z,5.90
2023-01-31T07:49:49.639Z,5.90
2023-01-31T07:59:54.757Z,6.10
2023-01-31T08:09:59.046Z,6.50
2023-01-31T08:20:04.873Z,6.70
2023-01-31T08:30:09.918Z,6.90
2023-01-31T08:40:15.487Z,7.10
2023-01-31T08:50:27.773Z,7.30
2023-01-31T09:00:34.268Z,7.40
2023-01-31T09:10:38.527Z,8.00
2023-01-31T09:20:43.538Z,8.50
2023-01-31T09:30:47.576Z,9.10
2023-01-31T09:40:53.500Z,9.50
2023-01-31T09:51:00.347Z,10.00
2023-01-31T10:01:15.534Z,10.70
2023-01-31T10:11:29.298Z,11.10
2023-01-31T10:21:40.112Z,11.30
2023-01-31T10:31:51.145Z,11.90
2023-01-31T10:42:10.452Z,12.40
2023-01-31T10:52:29.243Z,12.40
2023-01-31T11:02:34.823Z,12.80
2023-01-31T11:12:43.578Z,14.50
2023-01-31T11:22:48.829Z,14.90
2023-01-31T11:32:52.683Z,15.40
2023-01-31T11:42:59.346Z,15.70
2023-01-31T11:53:05.261Z,15.90
2023-01-31T12:03:18.022Z,16.20
2023-01-31T12:13:23.518Z,16.80
2023-01-31T12:23:39.397Z,16.60
2023-01-31T12:34:08.241Z,17.10
2023-01-31T12:44:38.606Z,17.10
2023-01-31T12:54:59.412Z,18.10
2023-01-31T13:05:13.611Z,17.90
2023-01-31T13:15:23.114Z,17.80
2023-01-31T13:25:38.595Z,17.60
2023-01-31T13:35:45.158Z,17.10
2023-01-31T13:45:55.066Z,17.30
2023-01-31T13:55:59.539Z,17.40
2023-01-31T14:06:04.803Z,18.60
2023-01-31T14:16:35.548Z,18.50
2023-01-31T14:26:55.308Z,18.70
2023-01-31T14:37:10.534Z,19.10
2023-01-31T14:47:32.724Z,19.50
2023-01-31T14:57:43.328Z,19.60
2023-01-31T15:08:30.309Z,18.80
2023-01-31T15:18:34.778Z,19.90
2023-01-31T15:28:44.753Z,19.70
2023-01-31T15:38:53.935Z,19.90
2023-01-31T15:48:59.771Z,17.70
2023-01-31T15:59:11.870Z,17.00
2023-01-31T16:09:26.897Z,15.80
2023-01-31T16:19:33.327Z,16.30
2023-01-31T16:29:43.893Z,15.90
2023-01-31T16:39:51.014Z,14.60
2023-01-31T16:50:42.284Z,13.40
2023-01-31T17:00:47.765Z,12.70
2023-01-31T17:10:52.919Z,12.20
2023-01-31T17:20:56.681Z,11.60
2023-01-31T17:31:02.479Z,10.70
2023-01-31T17:41:06.557Z,9.90
2023-01-31T17:51:12.152Z,9.30
2023-01-31T18:01:15.864Z,9.00
2023-01-31T18:11:21.094Z,8.70
2023-01-31T18:21:25.875Z,8.40
2023-01-31T18:31:31.764Z,8.20
2023-01-31T18:41:35.768Z,7.80
2023-01-31T18:51:41.797Z,7.80
2023-01-31T19:01:45.929Z,7.60
2023-01-31T19:11:51.132Z,7.50
2023-01-31T19:21:55.066Z,7.40
2023-01-31T19:32:00.546Z,7.30
2023-01-31T19:42:05.021Z,7.60
2023-01-31T19:52:10.047Z,7.20
2023-01-31T20:02:13.801Z,7.50
2023-01-31T20:12:19.030Z,7.50
2023-01-31T20:22:23.219Z,7.40
2023-01-31T20:32:28.281Z,7.50
2023-01-31T20:42:33.779Z,7.00
2023-01-31T20:52:39.238Z,7.40
2023-01-31T21:02:42.876Z,7.60
2023-01-31T21:12:48.005Z,7.70
2023-01-31T21:22:51.615Z,7.40
2023-01-31T21:32:56.585Z,7.20
2023-01-31T21:43:00.255Z,7.00
2023-01-31T21:53:05.607Z,6.90
2023-01-31T22:03:09.175Z,6.80
2023-01-31T22:13:14.512Z,6.30
2023-01-31T22:23:18.242Z,6.40
2023-01-31T22:33:23.400Z,6.50
2023-01-31T22:43:27.242Z,6.20
2023-01-31T22:53:34.854Z,5.80
2023-01-31T23:03:38.695Z,5.60
2023-01-31T23:13:44.507Z,5.30
2023-01-31T23:23:48.461Z,5.50
2023-01-31T23:33:53.795Z,5.50
2023-01-31T23:43:57.537Z,5.60
2023-01-31T23:54:03.384Z,5.40
